Vaerlose, Denmark
Current Conditions -  °F | °C
As of 4:50 AM on Monday 24 Nov 2014 (Local Time) from EKCH Reporting Station
Broken Clouds Broken Clouds  
Wind Chill: 41°   Ceiling: 1200
Heat Index: 48°   Visibility: 5mi
Dew Point: 43°   Wind: 21mph
Humidity: 82%   Direction: 170°S
Pressure: 29.88"   Gusts: NA
Location:  55.78°N, 12.37°E
Report Text: EKCH 240350Z 17018KT 8000 BKN012 09/06 Q1012 NOSIG
Loading
Personal Weather Stations






























Interactive Weather Map New forecast layout! Learn more

10-Day Weather Forecast

Advertisements
Track Severe Weather on mobile